sensor_id;sensor_type;location;lat;lon;timestamp;temperature;humidity
831;DHT22;397;50.564;7.272;2023-08-24T00:02:08;19.10;99.90
831;DHT22;397;50.564;7.272;2023-08-24T00:04:37;19.10;99.90
831;DHT22;397;50.564;7.272;2023-08-24T00:07:04;19.00;99.90
831;DHT22;397;50.564;7.272;2023-08-24T00:09:32;18.90;99.90
831;DHT22;397;50.564;7.272;2023-08-24T00:11:59;19.00;99.90
831;DHT22;397;50.564;7.272;2023-08-24T00:14:27;19.20;99.90
831;DHT22;397;50.564;7.272;2023-08-24T00:16:54;19.30;99.90
831;DHT22;397;50.564;7.272;2023-08-24T00:19:22;19.30;99.90
831;DHT22;397;50.564;7.272;2023-08-24T00:21:49;19.30;99.90
831;DHT22;397;50.564;7.272;2023-08-24T00:24:17;19.10;99.90
831;DHT22;397;50.564;7.272;2023-08-24T00:26:44;19.10;99.90
831;DHT22;397;50.564;7.272;2023-08-24T00:29:12;19.20;99.90
831;DHT22;397;50.564;7.272;2023-08-24T00:31:39;19.20;99.90
831;DHT22;397;50.564;7.272;2023-08-24T00:34:07;19.10;99.90
831;DHT22;397;50.564;7.272;2023-08-24T00:36:34;19.00;99.90
831;DHT22;397;50.564;7.272;2023-08-24T00:39:02;18.90;99.90
831;DHT22;397;50.564;7.272;2023-08-24T00:41:29;18.90;99.90
831;DHT22;397;50.564;7.272;2023-08-24T00:43:57;19.00;99.90
831;DHT22;397;50.564;7.272;2023-08-24T00:46:25;18.80;99.90
831;DHT22;397;50.564;7.272;2023-08-24T00:48:55;18.80;99.90
831;DHT22;397;50.564;7.272;2023-08-24T00:51:24;18.90;99.90
831;DHT22;397;50.564;7.272;2023-08-24T00:53:52;18.90;99.90
831;DHT22;397;50.564;7.272;2023-08-24T00:56:20;18.90;99.90
831;DHT22;397;50.564;7.272;2023-08-24T00:58:50;18.80;99.90
831;DHT22;397;50.564;7.272;2023-08-24T01:01:18;18.60;99.90
831;DHT22;397;50.564;7.272;2023-08-24T01:03:46;18.70;99.90
831;DHT22;397;50.564;7.272;2023-08-24T01:06:13;18.70;99.90
831;DHT22;397;50.564;7.272;2023-08-24T01:08:41;18.70;99.90
831;DHT22;397;50.564;7.272;2023-08-24T01:14:09;18.60;99.90
831;DHT22;397;50.564;7.272;2023-08-24T01:16:39;18.60;99.90
831;DHT22;397;50.564;7.272;2023-08-24T01:21:51;18.70;99.90
831;DHT22;397;50.564;7.272;2023-08-24T01:24:44;18.70;99.90
831;DHT22;397;50.564;7.272;2023-08-24T01:27:06;18.70;99.90
831;DHT22;397;50.564;7.272;2023-08-24T01:29:34;18.80;99.90
831;DHT22;397;50.564;7.272;2023-08-24T01:32:01;18.80;99.90
831;DHT22;397;50.564;7.272;2023-08-24T01:34:29;18.70;99.90
831;DHT22;397;50.564;7.272;2023-08-24T01:36:56;18.50;99.90
831;DHT22;397;50.564;7.272;2023-08-24T01:39:35;18.60;99.90
831;DHT22;397;50.564;7.272;2023-08-24T01:42:02;18.70;99.90
831;DHT22;397;50.564;7.272;2023-08-24T01:44:34;18.70;99.90
831;DHT22;397;50.564;7.272;2023-08-24T01:47:04;18.80;99.90
831;DHT22;397;50.564;7.272;2023-08-24T01:49:32;18.70;99.90
831;DHT22;397;50.564;7.272;2023-08-24T01:52:02;18.70;99.90
831;DHT22;397;50.564;7.272;2023-08-24T01:54:31;18.70;99.90
831;DHT22;397;50.564;7.272;2023-08-24T01:56:59;18.60;99.90
831;DHT22;397;50.564;7.272;2023-08-24T01:59:26;18.70;99.90
831;DHT22;397;50.564;7.272;2023-08-24T02:01:54;18.50;99.90
831;DHT22;397;50.564;7.272;2023-08-24T02:04:21;18.50;99.90
831;DHT22;397;50.564;7.272;2023-08-24T02:06:49;18.50;99.90
831;DHT22;397;50.564;7.272;2023-08-24T02:09:16;18.50;99.90
831;DHT22;397;50.564;7.272;2023-08-24T02:11:44;18.50;99.90
831;DHT22;397;50.564;7.272;2023-08-24T02:14:11;18.70;99.90
831;DHT22;397;50.564;7.272;2023-08-24T02:16:39;18.50;99.90
831;DHT22;397;50.564;7.272;2023-08-24T02:19:06;18.40;99.90
831;DHT22;397;50.564;7.272;2023-08-24T02:21:36;18.40;99.90
831;DHT22;397;50.564;7.272;2023-08-24T02:24:04;18.50;99.90
831;DHT22;397;50.564;7.272;2023-08-24T02:26:32;18.50;99.90
831;DHT22;397;50.564;7.272;2023-08-24T02:29:00;18.50;99.90
831;DHT22;397;50.564;7.272;2023-08-24T02:31:28;18.50;99.90
831;DHT22;397;50.564;7.272;2023-08-24T02:33:55;18.50;99.90
831;DHT22;397;50.564;7.272;2023-08-24T02:36:23;18.40;99.90
831;DHT22;397;50.564;7.272;2023-08-24T02:38:50;18.30;99.90
831;DHT22;397;50.564;7.272;2023-08-24T02:41:18;18.30;99.90
831;DHT22;397;50.564;7.272;2023-08-24T02:43:45;18.30;99.90
831;DHT22;397;50.564;7.272;2023-08-24T02:46:13;18.30;99.90
831;DHT22;397;50.564;7.272;2023-08-24T02:48:41;18.40;99.90
831;DHT22;397;50.564;7.272;2023-08-24T02:51:08;18.40;99.90
831;DHT22;397;50.564;7.272;2023-08-24T02:53:36;18.30;99.90
831;DHT22;397;50.564;7.272;2023-08-24T02:56:04;18.30;99.90
831;DHT22;397;50.564;7.272;2023-08-24T02:58:31;18.30;99.90
831;DHT22;397;50.564;7.272;2023-08-24T03:00:59;18.40;99.90
831;DHT22;397;50.564;7.272;2023-08-24T03:03:26;18.30;99.90
831;DHT22;397;50.564;7.272;2023-08-24T03:06:00;18.30;99.90
831;DHT22;397;50.564;7.272;2023-08-24T03:08:29;18.50;99.90
831;DHT22;397;50.564;7.272;2023-08-24T03:10:58;18.50;99.90
831;DHT22;397;50.564;7.272;2023-08-24T03:13:26;18.40;99.90
831;DHT22;397;50.564;7.272;2023-08-24T03:15:54;18.40;99.90
831;DHT22;397;50.564;7.272;2023-08-24T03:18:22;18.50;99.90
831;DHT22;397;50.564;7.272;2023-08-24T03:20:49;18.60;99.90
831;DHT22;397;50.564;7.272;2023-08-24T03:23:17;18.70;99.90
831;DHT22;397;50.564;7.272;2023-08-24T03:25:45;18.70;99.90
831;DHT22;397;50.564;7.272;2023-08-24T03:28:12;18.60;99.90
831;DHT22;397;50.564;7.272;2023-08-24T03:30:48;18.60;99.90
831;DHT22;397;50.564;7.272;2023-08-24T03:33:15;18.60;99.90
831;DHT22;397;50.564;7.272;2023-08-24T03:35:43;18.50;99.90
831;DHT22;397;50.564;7.272;2023-08-24T03:38:11;18.60;99.90
831;DHT22;397;50.564;7.272;2023-08-24T03:40:39;18.60;99.90
831;DHT22;397;50.564;7.272;2023-08-24T03:43:06;18.60;99.90
831;DHT22;397;50.564;7.272;2023-08-24T03:45:34;18.60;99.90
831;DHT22;397;50.564;7.272;2023-08-24T03:48:01;18.40;99.90
831;DHT22;397;50.564;7.272;2023-08-24T03:50:29;18.40;99.90
831;DHT22;397;50.564;7.272;2023-08-24T03:52:57;18.40;99.90
831;DHT22;397;50.564;7.272;2023-08-24T03:55:24;18.40;99.90
831;DHT22;397;50.564;7.272;2023-08-24T03:57:52;18.30;99.90
831;DHT22;397;50.564;7.272;2023-08-24T04:00:20;18.30;99.90
831;DHT22;397;50.564;7.272;2023-08-24T04:02:48;18.50;99.90
831;DHT22;397;50.564;7.272;2023-08-24T04:05:16;18.40;99.90
831;DHT22;397;50.564;7.272;2023-08-24T04:07:44;18.40;99.90
831;DHT22;397;50.564;7.272;2023-08-24T04:10:11;18.40;99.90
831;DHT22;397;50.564;7.272;2023-08-24T04:12:39;18.40;99.90
831;DHT22;397;50.564;7.272;2023-08-24T04:15:07;18.50;99.90
831;DHT22;397;50.564;7.272;2023-08-24T04:17:34;18.60;99.90
831;DHT22;397;50.564;7.272;2023-08-24T04:20:02;18.60;99.90
831;DHT22;397;50.564;7.272;2023-08-24T04:22:31;18.60;99.90
831;DHT22;397;50.564;7.272;2023-08-24T04:24:58;18.70;99.90
831;DHT22;397;50.564;7.272;2023-08-24T04:27:26;18.60;99.90
831;DHT22;397;50.564;7.272;2023-08-24T04:29:54;18.60;99.90
831;DHT22;397;50.564;7.272;2023-08-24T04:32:22;18.60;99.90
831;DHT22;397;50.564;7.272;2023-08-24T04:34:50;18.60;99.90
831;DHT22;397;50.564;7.272;2023-08-24T04:37:17;18.70;99.90
831;DHT22;397;50.564;7.272;2023-08-24T04:39:45;18.70;99.90
831;DHT22;397;50.564;7.272;2023-08-24T04:42:13;18.70;99.90
831;DHT22;397;50.564;7.272;2023-08-24T04:44:41;18.80;99.90
831;DHT22;397;50.564;7.272;2023-08-24T04:47:08;18.90;99.90
831;DHT22;397;50.564;7.272;2023-08-24T04:49:36;18.80;99.90
831;DHT22;397;50.564;7.272;2023-08-24T04:52:04;18.50;99.90
831;DHT22;397;50.564;7.272;2023-08-24T04:54:32;18.50;99.90
831;DHT22;397;50.564;7.272;2023-08-24T04:57:00;18.70;99.90
831;DHT22;397;50.564;7.272;2023-08-24T04:59:28;18.70;99.90
831;DHT22;397;50.564;7.272;2023-08-24T05:01:55;18.60;99.90
831;DHT22;397;50.564;7.272;2023-08-24T05:04:23;18.60;99.90
831;DHT22;397;50.564;7.272;2023-08-24T05:06:50;18.60;99.90
831;DHT22;397;50.564;7.272;2023-08-24T05:09:18;18.50;99.90
831;DHT22;397;50.564;7.272;2023-08-24T05:11:45;18.50;99.90
831;DHT22;397;50.564;7.272;2023-08-24T05:14:13;18.70;99.90
831;DHT22;397;50.564;7.272;2023-08-24T05:16:40;18.70;99.90
831;DHT22;397;50.564;7.272;2023-08-24T05:19:08;18.70;99.90
831;DHT22;397;50.564;7.272;2023-08-24T05:21:35;18.60;99.90
831;DHT22;397;50.564;7.272;2023-08-24T05:24:03;18.40;99.90
831;DHT22;397;50.564;7.272;2023-08-24T05:26:31;18.60;99.90
831;DHT22;397;50.564;7.272;2023-08-24T05:28:58;18.70;99.90
831;DHT22;397;50.564;7.272;2023-08-24T05:31:26;18.90;99.90
831;DHT22;397;50.564;7.272;2023-08-24T05:33:53;18.90;99.90
831;DHT22;397;50.564;7.272;2023-08-24T05:36:21;18.80;99.90
831;DHT22;397;50.564;7.272;2023-08-24T05:38:48;18.60;99.90
831;DHT22;397;50.564;7.272;2023-08-24T05:41:18;18.60;99.90
831;DHT22;397;50.564;7.272;2023-08-24T05:43:45;18.50;99.90
831;DHT22;397;50.564;7.272;2023-08-24T05:46:13;18.60;99.90
831;DHT22;397;50.564;7.272;2023-08-24T05:48:40;18.50;99.90
831;DHT22;397;50.564;7.272;2023-08-24T05:51:08;18.60;99.90
831;DHT22;397;50.564;7.272;2023-08-24T05:53:36;18.50;99.90
831;DHT22;397;50.564;7.272;2023-08-24T05:56:04;18.60;99.90
831;DHT22;397;50.564;7.272;2023-08-24T05:58:32;18.70;99.90
831;DHT22;397;50.564;7.272;2023-08-24T06:01:00;18.90;99.90
831;DHT22;397;50.564;7.272;2023-08-24T06:03:28;18.90;99.90
831;DHT22;397;50.564;7.272;2023-08-24T06:06:00;19.10;99.90
831;DHT22;397;50.564;7.272;2023-08-24T06:08:29;19.20;99.90
831;DHT22;397;50.564;7.272;2023-08-24T06:10:57;19.40;99.90
831;DHT22;397;50.564;7.272;2023-08-24T06:13:25;19.60;99.90
831;DHT22;397;50.564;7.272;2023-08-24T06:15:53;19.70;99.90
831;DHT22;397;50.564;7.272;2023-08-24T06:18:21;19.70;99.90
831;DHT22;397;50.564;7.272;2023-08-24T06:20:48;19.60;99.90
831;DHT22;397;50.564;7.272;2023-08-24T06:23:19;19.60;99.90
831;DHT22;397;50.564;7.272;2023-08-24T06:25:48;19.60;99.90
831;DHT22;397;50.564;7.272;2023-08-24T06:28:15;19.60;99.90
831;DHT22;397;50.564;7.272;2023-08-24T06:30:43;19.70;99.90
831;DHT22;397;50.564;7.272;2023-08-24T06:33:12;19.80;99.90
831;DHT22;397;50.564;7.272;2023-08-24T06:35:41;19.90;99.90
831;DHT22;397;50.564;7.272;2023-08-24T06:38:08;19.90;99.90
831;DHT22;397;50.564;7.272;2023-08-24T06:40:36;19.80;99.90
831;DHT22;397;50.564;7.272;2023-08-24T06:43:03;19.80;99.90
831;DHT22;397;50.564;7.272;2023-08-24T06:45:32;19.80;99.90
831;DHT22;397;50.564;7.272;2023-08-24T06:47:59;19.70;99.90
831;DHT22;397;50.564;7.272;2023-08-24T06:50:27;19.70;99.90
831;DHT22;397;50.564;7.272;2023-08-24T06:52:54;19.60;99.90
831;DHT22;397;50.564;7.272;2023-08-24T06:55:22;19.70;99.90
831;DHT22;397;50.564;7.272;2023-08-24T06:57:49;19.80;99.90
831;DHT22;397;50.564;7.272;2023-08-24T07:00:21;20.00;99.90
831;DHT22;397;50.564;7.272;2023-08-24T07:02:50;20.10;99.90
831;DHT22;397;50.564;7.272;2023-08-24T07:05:17;20.00;99.90
831;DHT22;397;50.564;7.272;2023-08-24T07:07:47;20.30;99.90
831;DHT22;397;50.564;7.272;2023-08-24T07:10:16;20.60;99.90
831;DHT22;397;50.564;7.272;2023-08-24T07:12:44;20.80;99.90
831;DHT22;397;50.564;7.272;2023-08-24T07:15:13;21.00;99.90
831;DHT22;397;50.564;7.272;2023-08-24T07:17:40;21.10;99.90
831;DHT22;397;50.564;7.272;2023-08-24T07:20:09;21.20;99.90
831;DHT22;397;50.564;7.272;2023-08-24T07:22:38;21.30;99.90
831;DHT22;397;50.564;7.272;2023-08-24T07:25:06;21.50;99.90
831;DHT22;397;50.564;7.272;2023-08-24T07:27:35;21.60;99.90
831;DHT22;397;50.564;7.272;2023-08-24T07:30:03;21.70;99.90
831;DHT22;397;50.564;7.272;2023-08-24T07:32:34;21.90;99.90
831;DHT22;397;50.564;7.272;2023-08-24T07:35:01;22.10;99.90
831;DHT22;397;50.564;7.272;2023-08-24T07:37:29;22.20;99.90
831;DHT22;397;50.564;7.272;2023-08-24T07:39:56;22.50;99.90
831;DHT22;397;50.564;7.272;2023-08-24T07:42:24;22.50;99.90
831;DHT22;397;50.564;7.272;2023-08-24T07:44:51;22.50;99.90
831;DHT22;397;50.564;7.272;2023-08-24T07:47:19;22.70;99.90
831;DHT22;397;50.564;7.272;2023-08-24T07:49:47;22.80;99.90
831;DHT22;397;50.564;7.272;2023-08-24T07:52:14;23.00;99.90
831;DHT22;397;50.564;7.272;2023-08-24T07:54:41;23.00;99.90
831;DHT22;397;50.564;7.272;2023-08-24T07:57:10;23.20;99.90
831;DHT22;397;50.564;7.272;2023-08-24T07:59:38;23.20;99.90
831;DHT22;397;50.564;7.272;2023-08-24T08:02:06;23.20;99.90
831;DHT22;397;50.564;7.272;2023-08-24T08:04:33;23.50;99.90
831;DHT22;397;50.564;7.272;2023-08-24T08:07:01;23.50;99.90
831;DHT22;397;50.564;7.272;2023-08-24T08:09:29;23.50;99.90
831;DHT22;397;50.564;7.272;2023-08-24T08:11:56;23.50;99.90
831;DHT22;397;50.564;7.272;2023-08-24T08:14:25;23.50;99.90
831;DHT22;397;50.564;7.272;2023-08-24T08:16:53;23.50;99.90
831;DHT22;397;50.564;7.272;2023-08-24T08:19:20;23.60;99.90
831;DHT22;397;50.564;7.272;2023-08-24T08:21:49;23.60;99.90
831;DHT22;397;50.564;7.272;2023-08-24T08:24:16;23.50;99.90
831;DHT22;397;50.564;7.272;2023-08-24T08:26:44;23.70;99.90
831;DHT22;397;50.564;7.272;2023-08-24T08:29:11;23.90;99.90
831;DHT22;397;50.564;7.272;2023-08-24T08:31:40;23.90;99.90
831;DHT22;397;50.564;7.272;2023-08-24T08:34:08;23.80;99.90
831;DHT22;397;50.564;7.272;2023-08-24T08:36:35;24.00;99.90
831;DHT22;397;50.564;7.272;2023-08-24T08:39:03;24.20;99.90
831;DHT22;397;50.564;7.272;2023-08-24T08:41:33;24.20;99.90
831;DHT22;397;50.564;7.272;2023-08-24T08:44:04;24.30;99.90
831;DHT22;397;50.564;7.272;2023-08-24T08:46:33;24.20;99.90
831;DHT22;397;50.564;7.272;2023-08-24T08:49:01;24.30;99.90
831;DHT22;397;50.564;7.272;2023-08-24T08:51:29;24.50;99.90
831;DHT22;397;50.564;7.272;2023-08-24T08:53:57;24.30;99.90
831;DHT22;397;50.564;7.272;2023-08-24T08:56:25;24.50;99.90
831;DHT22;397;50.564;7.272;2023-08-24T08:58:52;24.70;99.90
831;DHT22;397;50.564;7.272;2023-08-24T09:01:22;24.80;99.90
831;DHT22;397;50.564;7.272;2023-08-24T09:03:51;24.70;99.90
831;DHT22;397;50.564;7.272;2023-08-24T09:06:20;24.80;99.90
831;DHT22;397;50.564;7.272;2023-08-24T09:08:49;24.90;99.90
831;DHT22;397;50.564;7.272;2023-08-24T09:11:17;25.10;99.90
831;DHT22;397;50.564;7.272;2023-08-24T09:13:46;25.20;99.90
831;DHT22;397;50.564;7.272;2023-08-24T09:16:13;25.20;99.90
831;DHT22;397;50.564;7.272;2023-08-24T09:18:45;25.10;99.90
831;DHT22;397;50.564;7.272;2023-08-24T09:21:14;25.20;99.90
831;DHT22;397;50.564;7.272;2023-08-24T09:23:52;25.20;99.90
831;DHT22;397;50.564;7.272;2023-08-24T09:26:15;25.40;99.90
831;DHT22;397;50.564;7.272;2023-08-24T09:28:43;25.30;99.90
831;DHT22;397;50.564;7.272;2023-08-24T09:31:12;25.20;99.90
831;DHT22;397;50.564;7.272;2023-08-24T09:33:42;25.20;99.90
831;DHT22;397;50.564;7.272;2023-08-24T09:36:16;25.30;99.90
831;DHT22;397;50.564;7.272;2023-08-24T09:38:47;25.40;99.90
831;DHT22;397;50.564;7.272;2023-08-24T09:41:18;25.40;99.90
831;DHT22;397;50.564;7.272;2023-08-24T09:43:46;25.60;99.90
831;DHT22;397;50.564;7.272;2023-08-24T09:46:18;25.60;99.90
831;DHT22;397;50.564;7.272;2023-08-24T09:48:44;25.60;99.90
831;DHT22;397;50.564;7.272;2023-08-24T09:51:12;25.50;99.90
831;DHT22;397;50.564;7.272;2023-08-24T09:53:41;25.40;99.90
831;DHT22;397;50.564;7.272;2023-08-24T09:56:10;25.40;99.90
831;DHT22;397;50.564;7.272;2023-08-24T09:58:39;25.40;99.90
831;DHT22;397;50.564;7.272;2023-08-24T10:01:06;25.20;99.90
831;DHT22;397;50.564;7.272;2023-08-24T10:03:34;25.30;99.90
831;DHT22;397;50.564;7.272;2023-08-24T10:06:04;25.20;99.90
831;DHT22;397;50.564;7.272;2023-08-24T10:08:42;25.20;99.90
831;DHT22;397;50.564;7.272;2023-08-24T10:11:10;25.40;99.90
831;DHT22;397;50.564;7.272;2023-08-24T10:13:50;25.50;99.90
831;DHT22;397;50.564;7.272;2023-08-24T10:16:14;25.50;99.90
831;DHT22;397;50.564;7.272;2023-08-24T10:18:42;25.70;99.90
831;DHT22;397;50.564;7.272;2023-08-24T10:21:09;25.80;99.90
831;DHT22;397;50.564;7.272;2023-08-24T10:23:39;25.90;99.90
831;DHT22;397;50.564;7.272;2023-08-24T10:26:11;25.90;99.90
831;DHT22;397;50.564;7.272;2023-08-24T10:28:39;26.10;99.90
831;DHT22;397;50.564;7.272;2023-08-24T10:31:07;26.20;99.90
831;DHT22;397;50.564;7.272;2023-08-24T10:33:36;26.40;99.90
831;DHT22;397;50.564;7.272;2023-08-24T10:36:07;26.40;99.90
831;DHT22;397;50.564;7.272;2023-08-24T10:38:40;26.60;99.90
831;DHT22;397;50.564;7.272;2023-08-24T10:41:05;26.70;99.90
831;DHT22;397;50.564;7.272;2023-08-24T10:43:36;26.70;99.90
831;DHT22;397;50.564;7.272;2023-08-24T10:46:11;26.80;99.90
831;DHT22;397;50.564;7.272;2023-08-24T10:51:22;26.80;99.90
831;DHT22;397;50.564;7.272;2023-08-24T10:54:02;26.70;99.90
831;DHT22;397;50.564;7.272;2023-08-24T10:56:36;26.80;99.90
831;DHT22;397;50.564;7.272;2023-08-24T10:59:16;26.80;99.90
831;DHT22;397;50.564;7.272;2023-08-24T11:04:20;26.90;99.90
831;DHT22;397;50.564;7.272;2023-08-24T11:06:52;27.00;99.90
831;DHT22;397;50.564;7.272;2023-08-24T11:09:20;27.00;99.90
831;DHT22;397;50.564;7.272;2023-08-24T11:12:02;27.30;99.90
831;DHT22;397;50.564;7.272;2023-08-24T11:14:27;27.20;99.90
831;DHT22;397;50.564;7.272;2023-08-24T11:17:01;27.10;99.90
831;DHT22;397;50.564;7.272;2023-08-24T11:19:29;27.10;99.90
831;DHT22;397;50.564;7.272;2023-08-24T11:21:58;27.30;99.90
831;DHT22;397;50.564;7.272;2023-08-24T11:24:26;27.30;99.90
831;DHT22;397;50.564;7.272;2023-08-24T11:26:54;27.20;99.90
831;DHT22;397;50.564;7.272;2023-08-24T11:29:24;27.20;99.90
831;DHT22;397;50.564;7.272;2023-08-24T11:31:51;27.20;99.90
831;DHT22;397;50.564;7.272;2023-08-24T11:34:19;27.10;99.90
831;DHT22;397;50.564;7.272;2023-08-24T11:36:47;27.20;99.90
831;DHT22;397;50.564;7.272;2023-08-24T11:39:19;27.20;99.90
831;DHT22;397;50.564;7.272;2023-08-24T11:42:07;27.20;99.90
831;DHT22;397;50.564;7.272;2023-08-24T11:44:27;27.30;99.90
831;DHT22;397;50.564;7.272;2023-08-24T11:46:58;27.30;99.90
831;DHT22;397;50.564;7.272;2023-08-24T11:49:26;27.30;99.90
831;DHT22;397;50.564;7.272;2023-08-24T11:51:55;27.30;99.90
831;DHT22;397;50.564;7.272;2023-08-24T11:54:22;27.20;99.90
831;DHT22;397;50.564;7.272;2023-08-24T11:56:50;27.20;99.90
831;DHT22;397;50.564;7.272;2023-08-24T11:59:17;27.20;99.90
831;DHT22;397;50.564;7.272;2023-08-24T12:01:47;27.20;99.90
831;DHT22;397;50.564;7.272;2023-08-24T12:04:15;27.30;99.90
831;DHT22;397;50.564;7.272;2023-08-24T12:06:42;27.30;99.90
831;DHT22;397;50.564;7.272;2023-08-24T12:09:10;27.20;99.90
831;DHT22;397;50.564;7.272;2023-08-24T12:11:38;27.30;99.90
831;DHT22;397;50.564;7.272;2023-08-24T12:14:07;27.30;99.90
831;DHT22;397;50.564;7.272;2023-08-24T12:16:36;27.30;99.90
831;DHT22;397;50.564;7.272;2023-08-24T12:19:07;27.40;99.90
831;DHT22;397;50.564;7.272;2023-08-24T12:21:34;27.50;99.90
831;DHT22;397;50.564;7.272;2023-08-24T12:24:05;27.50;99.90
831;DHT22;397;50.564;7.272;2023-08-24T12:26:34;27.40;99.90
831;DHT22;397;50.564;7.272;2023-08-24T12:29:08;27.40;99.90
831;DHT22;397;50.564;7.272;2023-08-24T12:31:36;27.20;99.90
831;DHT22;397;50.564;7.272;2023-08-24T12:34:05;27.10;99.90
831;DHT22;397;50.564;7.272;2023-08-24T12:36:36;27.00;99.90
831;DHT22;397;50.564;7.272;2023-08-24T12:39:05;27.00;99.90
831;DHT22;397;50.564;7.272;2023-08-24T12:41:34;26.90;99.90
831;DHT22;397;50.564;7.272;2023-08-24T12:44:02;26.80;99.90
831;DHT22;397;50.564;7.272;2023-08-24T12:46:35;26.60;99.90
831;DHT22;397;50.564;7.272;2023-08-24T12:49:03;26.50;99.90
831;DHT22;397;50.564;7.272;2023-08-24T12:51:30;26.40;99.90
831;DHT22;397;50.564;7.272;2023-08-24T12:53:58;26.10;99.90
831;DHT22;397;50.564;7.272;2023-08-24T12:56:25;26.00;99.90
831;DHT22;397;50.564;7.272;2023-08-24T12:58:53;25.70;99.90
831;DHT22;397;50.564;7.272;2023-08-24T13:01:21;25.60;99.90
831;DHT22;397;50.564;7.272;2023-08-24T13:03:49;25.60;99.90
831;DHT22;397;50.564;7.272;2023-08-24T13:06:16;25.40;99.90
831;DHT22;397;50.564;7.272;2023-08-24T13:08:43;25.40;99.90
831;DHT22;397;50.564;7.272;2023-08-24T13:11:11;25.10;99.90
831;DHT22;397;50.564;7.272;2023-08-24T13:13:39;24.80;99.90
831;DHT22;397;50.564;7.272;2023-08-24T13:16:06;24.80;99.90
831;DHT22;397;50.564;7.272;2023-08-24T13:18:34;24.80;99.90
831;DHT22;397;50.564;7.272;2023-08-24T13:21:01;24.80;99.90
831;DHT22;397;50.564;7.272;2023-08-24T13:23:29;24.70;99.90
831;DHT22;397;50.564;7.272;2023-08-24T13:25:58;24.50;99.90
831;DHT22;397;50.564;7.272;2023-08-24T13:28:26;24.30;99.90
831;DHT22;397;50.564;7.272;2023-08-24T13:30:54;24.30;99.90
831;DHT22;397;50.564;7.272;2023-08-24T13:33:21;24.20;99.90
831;DHT22;397;50.564;7.272;2023-08-24T13:35:49;24.30;99.90
831;DHT22;397;50.564;7.272;2023-08-24T13:38:16;24.20;99.90
831;DHT22;397;50.564;7.272;2023-08-24T13:40:44;24.10;99.90
831;DHT22;397;50.564;7.272;2023-08-24T13:43:11;23.90;99.90
831;DHT22;397;50.564;7.272;2023-08-24T13:45:39;23.90;99.90
831;DHT22;397;50.564;7.272;2023-08-24T13:48:06;23.90;99.90
831;DHT22;397;50.564;7.272;2023-08-24T13:50:34;23.90;99.90
831;DHT22;397;50.564;7.272;2023-08-24T13:53:02;23.80;99.90
831;DHT22;397;50.564;7.272;2023-08-24T13:55:30;23.90;99.90
831;DHT22;397;50.564;7.272;2023-08-24T13:57:58;23.90;99.90
831;DHT22;397;50.564;7.272;2023-08-24T14:00:26;24.10;99.90
831;DHT22;397;50.564;7.272;2023-08-24T14:02:53;24.00;99.90
831;DHT22;397;50.564;7.272;2023-08-24T14:05:21;24.00;99.90
831;DHT22;397;50.564;7.272;2023-08-24T14:07:48;24.10;99.90
831;DHT22;397;50.564;7.272;2023-08-24T14:10:16;24.10;99.90
831;DHT22;397;50.564;7.272;2023-08-24T14:12:43;24.20;99.90
831;DHT22;397;50.564;7.272;2023-08-24T14:15:11;24.20;99.90
831;DHT22;397;50.564;7.272;2023-08-24T14:17:38;24.10;99.90
831;DHT22;397;50.564;7.272;2023-08-24T14:20:06;24.10;99.90
831;DHT22;397;50.564;7.272;2023-08-24T14:22:35;24.10;99.90
831;DHT22;397;50.564;7.272;2023-08-24T14:25:03;24.10;99.90
831;DHT22;397;50.564;7.272;2023-08-24T14:27:30;24.10;99.90
831;DHT22;397;50.564;7.272;2023-08-24T14:29:58;24.10;99.90
831;DHT22;397;50.564;7.272;2023-08-24T14:32:26;24.00;99.90
831;DHT22;397;50.564;7.272;2023-08-24T14:34:53;23.90;99.90
831;DHT22;397;50.564;7.272;2023-08-24T14:37:21;24.00;99.90
831;DHT22;397;50.564;7.272;2023-08-24T14:39:48;24.10;99.90
831;DHT22;397;50.564;7.272;2023-08-24T14:42:16;23.90;99.90
831;DHT22;397;50.564;7.272;2023-08-24T14:44:43;24.00;99.90
831;DHT22;397;50.564;7.272;2023-08-24T14:47:11;24.00;99.90
831;DHT22;397;50.564;7.272;2023-08-24T14:49:38;23.90;99.90
831;DHT22;397;50.564;7.272;2023-08-24T14:52:06;24.00;99.90
831;DHT22;397;50.564;7.272;2023-08-24T14:54:33;24.10;99.90
831;DHT22;397;50.564;7.272;2023-08-24T14:57:01;24.10;99.90
831;DHT22;397;50.564;7.272;2023-08-24T14:59:29;24.10;99.90
831;DHT22;397;50.564;7.272;2023-08-24T15:01:57;24.00;99.90
831;DHT22;397;50.564;7.272;2023-08-24T15:04:26;23.90;99.90
831;DHT22;397;50.564;7.272;2023-08-24T15:06:54;23.80;99.90
831;DHT22;397;50.564;7.272;2023-08-24T15:09:21;23.90;99.90
831;DHT22;397;50.564;7.272;2023-08-24T15:11:49;23.80;99.90
831;DHT22;397;50.564;7.272;2023-08-24T15:14:17;23.90;99.90
831;DHT22;397;50.564;7.272;2023-08-24T15:16:44;23.90;99.90
831;DHT22;397;50.564;7.272;2023-08-24T15:19:12;23.70;99.90
831;DHT22;397;50.564;7.272;2023-08-24T15:21:39;23.80;99.90
831;DHT22;397;50.564;7.272;2023-08-24T15:24:07;23.60;99.90
831;DHT22;397;50.564;7.272;2023-08-24T15:26:35;23.60;99.90
831;DHT22;397;50.564;7.272;2023-08-24T15:29:11;23.50;99.90
831;DHT22;397;50.564;7.272;2023-08-24T15:31:38;23.30;99.90
831;DHT22;397;50.564;7.272;2023-08-24T15:34:06;23.20;99.90
831;DHT22;397;50.564;7.272;2023-08-24T15:36:33;23.00;99.90
831;DHT22;397;50.564;7.272;2023-08-24T15:39:01;23.00;99.90
831;DHT22;397;50.564;7.272;2023-08-24T15:41:30;22.90;99.90
831;DHT22;397;50.564;7.272;2023-08-24T15:43:57;22.90;99.90
831;DHT22;397;50.564;7.272;2023-08-24T15:46:25;22.90;99.90
831;DHT22;397;50.564;7.272;2023-08-24T15:48:52;22.90;99.90
831;DHT22;397;50.564;7.272;2023-08-24T15:51:22;22.70;99.90
831;DHT22;397;50.564;7.272;2023-08-24T15:53:50;22.50;99.90
831;DHT22;397;50.564;7.272;2023-08-24T15:56:23;22.60;99.90
831;DHT22;397;50.564;7.272;2023-08-24T15:58:51;22.60;99.90
831;DHT22;397;50.564;7.272;2023-08-24T16:01:18;22.60;99.90
831;DHT22;397;50.564;7.272;2023-08-24T16:03:46;22.40;99.90
831;DHT22;397;50.564;7.272;2023-08-24T16:06:33;22.30;99.90
831;DHT22;397;50.564;7.272;2023-08-24T16:09:00;22.20;99.90
831;DHT22;397;50.564;7.272;2023-08-24T16:11:28;22.40;99.90
831;DHT22;397;50.564;7.272;2023-08-24T16:13:55;22.40;99.90
831;DHT22;397;50.564;7.272;2023-08-24T16:16:23;22.40;99.90
831;DHT22;397;50.564;7.272;2023-08-24T16:18:51;22.30;99.90
831;DHT22;397;50.564;7.272;2023-08-24T16:21:18;22.20;99.90
831;DHT22;397;50.564;7.272;2023-08-24T16:23:46;22.10;99.90
831;DHT22;397;50.564;7.272;2023-08-24T16:26:13;22.10;99.90
831;DHT22;397;50.564;7.272;2023-08-24T16:28:41;22.10;99.90
831;DHT22;397;50.564;7.272;2023-08-24T16:31:08;22.30;99.90
831;DHT22;397;50.564;7.272;2023-08-24T16:33:36;22.30;99.90
831;DHT22;397;50.564;7.272;2023-08-24T16:36:04;22.00;99.90
831;DHT22;397;50.564;7.272;2023-08-24T16:38:31;22.00;99.90
831;DHT22;397;50.564;7.272;2023-08-24T16:40:59;22.00;99.90
831;DHT22;397;50.564;7.272;2023-08-24T16:43:26;22.20;99.90
831;DHT22;397;50.564;7.272;2023-08-24T16:45:54;22.30;99.90
831;DHT22;397;50.564;7.272;2023-08-24T16:48:21;22.30;99.90
831;DHT22;397;50.564;7.272;2023-08-24T16:50:52;22.40;99.90
831;DHT22;397;50.564;7.272;2023-08-24T16:53:20;22.20;99.90